createdAt,value
2022-09-09T00:02:19.259Z,100494.00
2022-09-09T00:05:37.713Z,100497.97
2022-09-09T00:08:05.273Z,100492.72
2022-09-09T00:10:42.894Z,100491.09
2022-09-09T00:13:50.116Z,100494.59
2022-09-09T00:16:27.419Z,100488.09
2022-09-09T00:19:19.158Z,100487.63
2022-09-09T00:22:09.761Z,100486.56
2022-09-09T00:25:24.619Z,100478.78
2022-09-09T00:27:52.298Z,100476.00
2022-09-09T00:30:27.459Z,100472.63
2022-09-09T00:33:14.019Z,100473.34
2022-09-09T00:35:53.714Z,100460.94
2022-09-09T00:38:50.790Z,100466.13
2022-09-09T00:42:14.175Z,100467.19
2022-09-09T00:45:02.318Z,100468.69
2022-09-09T00:48:12.346Z,100467.91
2022-09-09T00:51:12.098Z,100463.59
2022-09-09T00:54:17.133Z,100469.16
2022-09-09T00:57:30.141Z,100467.44
2022-09-09T01:00:21.673Z,100470.09
2022-09-09T01:03:19.097Z,100478.31
2022-09-09T01:06:28.620Z,100474.13
2022-09-09T01:09:39.332Z,100473.31
2022-09-09T01:12:19.238Z,100473.69
2022-09-09T01:15:00.103Z,100481.22
2022-09-09T01:17:45.899Z,100481.22
2022-09-09T01:20:31.205Z,100484.84
2022-09-09T01:23:39.695Z,100477.88
2022-09-09T01:26:36.674Z,100475.75
2022-09-09T01:29:10.755Z,100477.03
2022-09-09T01:32:24.255Z,100474.59
2022-09-09T01:34:53.241Z,100472.84
2022-09-09T01:37:20.211Z,100472.25
2022-09-09T01:39:47.372Z,100463.09
2022-09-09T01:42:18.929Z,100470.59
2022-09-09T01:44:45.884Z,100469.34
2022-09-09T01:47:13.319Z,100472.47
2022-09-09T01:49:40.319Z,100478.03
2022-09-09T01:52:09.281Z,100481.16
2022-09-09T01:54:36.772Z,100470.50
2022-09-09T01:58:04.658Z,100479.19
2022-09-09T02:00:42.975Z,100481.50
2022-09-09T02:03:34.793Z,100485.09
2022-09-09T02:06:36.730Z,100481.50
2022-09-09T02:09:12.794Z,100485.47
2022-09-09T02:11:41.789Z,100490.31
2022-09-09T02:14:26.931Z,100488.91
2022-09-09T02:17:09.278Z,100475.69
2022-09-09T02:19:53.803Z,100487.25
2022-09-09T02:22:29.776Z,100485.28
2022-09-09T02:25:01.566Z,100476.59
2022-09-09T02:27:29.831Z,100477.59
2022-09-09T02:30:04.760Z,100482.91
2022-09-09T02:32:38.033Z,100487.50
2022-09-09T02:35:21.381Z,100481.84
2022-09-09T02:37:52.879Z,100486.31
2022-09-09T02:40:21.331Z,100477.34
2022-09-09T02:42:50.999Z,100483.75
2022-09-09T02:45:32.699Z,100473.56
2022-09-09T02:49:10.244Z,100484.34
2022-09-09T02:51:56.721Z,100483.78
2022-09-09T02:54:37.219Z,100482.09
2022-09-09T02:57:31.102Z,100480.00
2022-09-09T03:00:02.758Z,100490.66
2022-09-09T03:02:30.061Z,100488.06
2022-09-09T03:04:57.437Z,100483.69
2022-09-09T03:07:24.564Z,100484.16
2022-09-09T03:09:51.851Z,100496.56
2022-09-09T03:12:19.393Z,100490.66
2022-09-09T03:14:47.009Z,100499.00
2022-09-09T03:17:14.089Z,100497.84
2022-09-09T03:19:41.254Z,100495.38
2022-09-09T03:22:12.432Z,100499.81
2022-09-09T03:24:39.397Z,100502.72
2022-09-09T03:27:06.353Z,100506.19
2022-09-09T03:29:33.983Z,100506.88
2022-09-09T03:32:01.009Z,100501.66
2022-09-09T03:34:28.205Z,100505.44
2022-09-09T03:36:55.153Z,100504.97
2022-09-09T03:39:22.075Z,100510.72
2022-09-09T03:41:49.484Z,100507.84
2022-09-09T03:44:16.517Z,100510.81
2022-09-09T03:46:43.517Z,100509.19
2022-09-09T03:49:11.476Z,100504.44
2022-09-09T03:51:39.392Z,100502.78
2022-09-09T03:54:09.255Z,100502.69
2022-09-09T03:56:36.755Z,100499.44
2022-09-09T03:59:05.135Z,100505.31
2022-09-09T04:01:32.209Z,100501.41
2022-09-09T04:03:59.284Z,100496.16
2022-09-09T04:06:27.022Z,100497.78
2022-09-09T04:08:53.997Z,100501.41
2022-09-09T04:11:21.326Z,100501.91
2022-09-09T04:13:50.298Z,100499.13
2022-09-09T04:16:17.398Z,100507.47
2022-09-09T04:18:44.785Z,100499.97
2022-09-09T04:21:13.363Z,100507.00
2022-09-09T04:23:40.648Z,100513.41
2022-09-09T04:26:08.270Z,100513.50
2022-09-09T04:28:37.792Z,100516.78
2022-09-09T04:31:24.654Z,100515.78
2022-09-09T04:33:52.643Z,100516.13
2022-09-09T04:36:20.799Z,100515.81
2022-09-09T04:38:49.442Z,100516.28
2022-09-09T04:41:17.632Z,100529.88
2022-09-09T04:43:44.969Z,100530.69
2022-09-09T04:46:12.081Z,100525.88
2022-09-09T04:48:39.171Z,100527.97
2022-09-09T04:51:13.505Z,100533.53
2022-09-09T04:53:44.053Z,100528.91
2022-09-09T04:56:18.437Z,100524.31
2022-09-09T04:58:46.504Z,100526.88
2022-09-09T05:01:18.601Z,100526.69
2022-09-09T05:03:47.615Z,100539.09
2022-09-09T05:06:22.869Z,100535.41
2022-09-09T05:08:52.545Z,100537.19
2022-09-09T05:11:27.935Z,100535.38
2022-09-09T05:13:57.566Z,100532.03
2022-09-09T05:16:25.754Z,100535.56
2022-09-09T05:18:52.987Z,100535.81
2022-09-09T05:21:24.111Z,100535.25
2022-09-09T05:23:52.497Z,100533.06
2022-09-09T05:26:25.094Z,100531.22
2022-09-09T05:28:52.097Z,100537.03
2022-09-09T05:31:20.727Z,100533.31
2022-09-09T05:33:52.967Z,100533.69
2022-09-09T05:36:23.519Z,100536.59
2022-09-09T05:38:51.248Z,100534.75
2022-09-09T05:41:18.900Z,100534.84
2022-09-09T05:43:48.612Z,100533.84
2022-09-09T05:46:26.112Z,100536.38
2022-09-09T05:48:55.100Z,100537.06
2022-09-09T05:51:27.663Z,100553.25
2022-09-09T05:53:56.297Z,100542.31
2022-09-09T05:56:28.099Z,100551.81
2022-09-09T05:58:57.610Z,100548.22
2022-09-09T06:01:35.163Z,100558.69
2022-09-09T06:04:04.835Z,100560.53
2022-09-09T06:06:37.676Z,100560.53
2022-09-09T06:09:10.696Z,100556.69
2022-09-09T06:11:41.306Z,100561.28
2022-09-09T06:14:09.754Z,100568.56
2022-09-09T06:16:38.957Z,100564.88
2022-09-09T06:19:06.414Z,100565.72
2022-09-09T06:21:38.313Z,100570.47
2022-09-09T06:24:08.394Z,100564.84
2022-09-09T06:26:42.201Z,100567.75
2022-09-09T06:29:10.994Z,100573.72
2022-09-09T06:31:39.159Z,100570.38
2022-09-09T06:34:09.993Z,100572.13
2022-09-09T06:36:40.596Z,100576.06
2022-09-09T06:39:14.824Z,100567.31
2022-09-09T06:41:43.933Z,100563.34
2022-09-09T06:44:13.030Z,100566.19
2022-09-09T06:46:40.790Z,100575.28
2022-09-09T06:49:10.191Z,100569.47
2022-09-09T06:51:44.032Z,100563.00
2022-09-09T06:54:14.807Z,100564.19
2022-09-09T06:56:44.358Z,100563.88
2022-09-09T06:59:13.360Z,100571.00
2022-09-09T07:01:54.890Z,100568.75
2022-09-09T07:04:22.631Z,100570.75
2022-09-09T07:06:49.717Z,100578.22
2022-09-09T07:09:17.444Z,100576.53
2022-09-09T07:11:54.253Z,100576.59
2022-09-09T07:14:21.953Z,100572.13
2022-09-09T07:16:48.956Z,100576.22
2022-09-09T07:19:16.377Z,100576.28
2022-09-09T07:21:45.047Z,100570.50
2022-09-09T07:24:13.784Z,100572.41
2022-09-09T07:26:42.050Z,100572.16
2022-09-09T07:29:10.281Z,100572.28
2022-09-09T07:31:41.195Z,100580.38
2022-09-09T07:34:08.605Z,100578.81
2022-09-09T07:36:40.955Z,100587.50
2022-09-09T07:39:14.232Z,100593.72
2022-09-09T07:41:49.249Z,100584.44
2022-09-09T07:44:28.589Z,100587.75
2022-09-09T07:46:55.585Z,100594.34
2022-09-09T07:49:29.752Z,100590.88
2022-09-09T07:52:00.316Z,100582.38
2022-09-09T07:54:27.608Z,100602.66
2022-09-09T07:56:55.062Z,100595.25
2022-09-09T07:59:22.163Z,100601.25
2022-09-09T08:01:56.104Z,100605.28
2022-09-09T08:04:26.466Z,100603.06
2022-09-09T08:07:04.120Z,100600.91
2022-09-09T08:09:33.396Z,100614.84
2022-09-09T08:12:02.080Z,100610.00
2022-09-09T08:14:30.761Z,100619.06
2022-09-09T08:16:58.284Z,100610.56
2022-09-09T08:19:25.703Z,100606.88
2022-09-09T08:21:52.711Z,100615.38
2022-09-09T08:24:20.751Z,100613.44
2022-09-09T08:26:50.661Z,100616.50
2022-09-09T08:29:19.692Z,100608.25
2022-09-09T08:31:55.595Z,100616.16
2022-09-09T08:34:24.312Z,100614.56
2022-09-09T08:36:52.954Z,100619.81
2022-09-09T08:39:23.169Z,100618.03
2022-09-09T08:42:19.237Z,100613.97
2022-09-09T08:45:30.601Z,100616.09
2022-09-09T08:48:36.816Z,100612.63
2022-09-09T08:51:08.340Z,100611.03
2022-09-09T08:53:59.074Z,100621.75
2022-09-09T08:56:32.793Z,100616.03
2022-09-09T08:59:04.589Z,100623.00
2022-09-09T09:01:47.708Z,100614.13
2022-09-09T09:04:57.048Z,100623.06
2022-09-09T09:08:13.214Z,100624.28
2022-09-09T09:10:54.418Z,100625.91
2022-09-09T09:13:59.605Z,100622.84
2022-09-09T09:16:55.708Z,100622.72
2022-09-09T09:19:27.137Z,100628.63
2022-09-09T09:22:53.253Z,100625.09
2022-09-09T09:25:32.562Z,100618.91
2022-09-09T09:28:22.872Z,100613.50
2022-09-09T09:31:15.029Z,100612.88
2022-09-09T09:33:45.753Z,100609.97
2022-09-09T09:36:16.414Z,100615.69
2022-09-09T09:41:45.082Z,100617.72
2022-09-09T09:44:45.090Z,100612.06
2022-09-09T09:47:24.590Z,100608.88
2022-09-09T09:50:03.305Z,100599.25
2022-09-09T09:52:33.351Z,100605.72
2022-09-09T09:55:13.397Z,100602.06
2022-09-09T09:57:41.063Z,100604.91
2022-09-09T10:00:22.312Z,100607.75
2022-09-09T10:02:53.630Z,100613.78
2022-09-09T10:05:33.783Z,100606.94
2022-09-09T10:08:12.134Z,100609.38
2022-09-09T10:11:06.916Z,100614.19
2022-09-09T10:14:07.503Z,100611.75
2022-09-09T10:17:51.759Z,100615.38
2022-09-09T10:21:01.424Z,100617.00
2022-09-09T10:24:08.408Z,100624.97
2022-09-09T10:26:59.250Z,100614.16
2022-09-09T10:30:03.663Z,100618.63
2022-09-09T10:33:04.284Z,100619.81
2022-09-09T10:36:19.474Z,100619.03
2022-09-09T10:39:32.884Z,100614.97
2022-09-09T10:42:21.330Z,100610.84
2022-09-09T10:48:32.950Z,100607.72
2022-09-09T10:51:52.313Z,100604.91
2022-09-09T10:55:11.912Z,100605.28
2022-09-09T10:57:53.312Z,100602.03
2022-09-09T11:00:47.022Z,100612.16
2022-09-09T11:03:34.526Z,100606.53
2022-09-09T11:06:18.420Z,100607.31
2022-09-09T11:08:48.264Z,100606.50
2022-09-09T11:11:45.799Z,100602.88
2022-09-09T11:14:52.594Z,100614.94
2022-09-09T11:17:42.049Z,100604.41
2022-09-09T11:20:15.733Z,100608.53
2022-09-09T11:23:06.125Z,100606.09
2022-09-09T11:25:59.005Z,100610.94
2022-09-09T11:29:11.654Z,100614.94
2022-09-09T11:32:48.982Z,100599.66
2022-09-09T11:35:45.058Z,100606.94
2022-09-09T11:38:48.400Z,100599.66
2022-09-09T11:41:21.629Z,100594.69
2022-09-09T11:43:54.325Z,100602.25
2022-09-09T11:46:39.256Z,100602.19
2022-09-09T11:49:28.046Z,100601.47
2022-09-09T11:51:55.916Z,100595.28
2022-09-09T11:54:47.509Z,100585.28
2022-09-09T11:57:39.895Z,100582.88
2022-09-09T12:00:08.859Z,100580.81
2022-09-09T12:02:37.708Z,100585.31
2022-09-09T12:05:15.391Z,100579.13
2022-09-09T12:07:57.990Z,100569.03
2022-09-09T12:10:35.063Z,100571.94
2022-09-09T12:13:37.719Z,100569.13
2022-09-09T12:16:06.611Z,100563.31
2022-09-09T12:18:40.606Z,100564.72
2022-09-09T12:21:57.953Z,100556.63
2022-09-09T12:25:22.619Z,100561.34
2022-09-09T12:28:26.874Z,100567.97
2022-09-09T12:31:26.639Z,100561.53
2022-09-09T12:33:53.793Z,100554.66
2022-09-09T12:36:31.147Z,100550.59
2022-09-09T12:39:33.445Z,100553.78
2022-09-09T12:42:00.584Z,100550.09
2022-09-09T12:44:31.040Z,100546.47
2022-09-09T12:47:04.897Z,100541.72
2022-09-09T12:49:42.184Z,100546.28
2022-09-09T12:52:34.421Z,100547.53
2022-09-09T12:55:07.436Z,100549.16
2022-09-09T12:57:41.250Z,100555.22
2022-09-09T13:00:23.688Z,100557.94
2022-09-09T13:03:02.209Z,100559.06
2022-09-09T13:05:40.202Z,100561.22
2022-09-09T13:08:14.913Z,100559.91
2022-09-09T13:11:00.117Z,100556.22
2022-09-09T13:13:39.269Z,100562.59
2022-09-09T13:16:27.908Z,100552.06
2022-09-09T13:18:57.000Z,100549.63
2022-09-09T13:21:38.306Z,100543.19
2022-09-09T13:24:32.401Z,100544.47
2022-09-09T13:27:36.140Z,100536.81
2022-09-09T13:30:41.362Z,100535.09
2022-09-09T13:33:15.581Z,100535.56
2022-09-09T13:36:05.143Z,100538.00
2022-09-09T13:38:55.718Z,100529.53
2022-09-09T13:41:35.912Z,100529.13
2022-09-09T13:44:07.598Z,100531.59
2022-09-09T13:46:42.162Z,100532.00
2022-09-09T13:49:11.569Z,100534.41
2022-09-09T13:51:48.003Z,100534.03
2022-09-09T13:54:21.908Z,100539.78
2022-09-09T13:56:50.814Z,100536.97
2022-09-09T13:59:21.055Z,100535.81
2022-09-09T14:01:50.244Z,100543.50
2022-09-09T14:04:17.725Z,100539.53
2022-09-09T14:06:45.139Z,100549.63
2022-09-09T14:09:17.732Z,100547.63
2022-09-09T14:11:49.413Z,100546.84
2022-09-09T14:14:16.488Z,100548.44
2022-09-09T14:16:43.724Z,100550.84
2022-09-09T14:21:38.174Z,100552.03
2022-09-09T14:24:05.797Z,100545.97
2022-09-09T14:26:33.527Z,100531.47
2022-09-09T14:29:02.531Z,100540.34
2022-09-09T14:31:30.048Z,100534.28
2022-09-09T14:33:57.055Z,100533.03
2022-09-09T14:36:25.292Z,100530.19
2022-09-09T14:38:53.005Z,100528.59
2022-09-09T14:41:23.673Z,100526.94
2022-09-09T14:43:51.245Z,100518.50
2022-09-09T14:46:21.881Z,100524.56
2022-09-09T14:48:52.095Z,100530.63
2022-09-09T14:51:24.114Z,100524.19
2022-09-09T14:53:58.289Z,100530.69
2022-09-09T14:56:31.824Z,100532.31
2022-09-09T14:59:03.471Z,100545.97
2022-09-09T15:01:33.287Z,100537.50
2022-09-09T15:04:05.810Z,100540.78
2022-09-09T15:06:40.292Z,100539.56
2022-09-09T15:09:07.587Z,100535.09
2022-09-09T15:11:38.929Z,100538.00
2022-09-09T15:14:09.741Z,100533.84
2022-09-09T15:16:37.708Z,100525.59
2022-09-09T15:19:04.860Z,100519.72
2022-09-09T15:21:37.484Z,100527.06
2022-09-09T15:24:05.990Z,100518.44
2022-09-09T15:26:33.239Z,100524.81
2022-09-09T15:29:00.589Z,100520.97
2022-09-09T15:31:32.860Z,100520.03
2022-09-09T15:34:08.022Z,100518.31
2022-09-09T15:36:40.491Z,100507.00
2022-09-09T15:39:16.930Z,100502.47
2022-09-09T15:41:47.949Z,100512.31
2022-09-09T15:44:17.116Z,100487.91
2022-09-09T15:46:54.686Z,100485.84
2022-09-09T15:49:27.485Z,100478.94
2022-09-09T15:51:59.248Z,100472.81
2022-09-09T15:54:27.834Z,100472.75
2022-09-09T15:57:05.081Z,100485.63
2022-09-09T15:59:35.152Z,100487.31
2022-09-09T16:02:02.812Z,100494.44
2022-09-09T16:04:30.647Z,100493.38
2022-09-09T16:07:05.857Z,100498.84
2022-09-09T16:09:36.542Z,100520.75
2022-09-09T16:12:13.092Z,100526.91
2022-09-09T16:14:40.534Z,100530.22
2022-09-09T16:17:08.250Z,100537.50
2022-09-09T16:19:36.053Z,100537.50
2022-09-09T16:22:04.017Z,100539.13
2022-09-09T16:24:31.657Z,100542.78
2022-09-09T16:26:58.524Z,100554.09
2022-09-09T16:29:28.400Z,100551.66
2022-09-09T16:31:59.903Z,100552.03
2022-09-09T16:34:29.789Z,100543.91
2022-09-09T16:36:57.210Z,100543.47
2022-09-09T16:39:24.255Z,100547.84
2022-09-09T16:41:51.284Z,100543.38
2022-09-09T16:44:20.493Z,100548.53
2022-09-09T16:46:55.570Z,100549.97
2022-09-09T16:49:28.600Z,100544.59
2022-09-09T16:52:00.282Z,100541.75
2022-09-09T16:54:28.189Z,100544.03
2022-09-09T16:56:55.544Z,100549.16
2022-09-09T16:59:24.276Z,100540.56
2022-09-09T17:01:53.592Z,100546.06
2022-09-09T17:04:28.969Z,100542.31
2022-09-09T17:06:58.426Z,100540.63
2022-09-09T17:09:30.285Z,100538.06
2022-09-09T17:11:59.493Z,100544.06
2022-09-09T17:14:26.609Z,100544.38
2022-09-09T17:16:53.637Z,100538.25
2022-09-09T17:19:20.955Z,100541.41
2022-09-09T17:22:14.902Z,100534.06
2022-09-09T17:24:39.573Z,100535.91
2022-09-09T17:27:07.015Z,100529.78
2022-09-09T17:29:36.891Z,100528.94
2022-09-09T17:32:06.549Z,100526.84
2022-09-09T17:34:34.862Z,100534.34
2022-09-09T17:37:01.839Z,100536.25
2022-09-09T17:39:28.916Z,100534.50
2022-09-09T17:41:55.970Z,100548.78
2022-09-09T17:44:22.910Z,100551.44
2022-09-09T17:46:50.449Z,100548.91
2022-09-09T17:49:18.735Z,100544.38
2022-09-09T17:51:47.497Z,100539.38
2022-09-09T17:54:21.341Z,100551.25
2022-09-09T17:56:49.996Z,100545.50
2022-09-09T17:59:19.470Z,100540.59
2022-09-09T18:01:53.031Z,100542.47
2022-09-09T18:04:20.802Z,100538.81
2022-09-09T18:06:54.132Z,100543.53
2022-09-09T18:09:26.586Z,100543.84
2022-09-09T18:11:58.793Z,100545.56
2022-09-09T18:14:31.451Z,100551.75
2022-09-09T18:17:02.509Z,100558.78
2022-09-09T18:19:33.136Z,100567.78
2022-09-09T18:22:02.757Z,100567.34
2022-09-09T18:24:31.780Z,100577.88
2022-09-09T18:26:59.401Z,100588.84
2022-09-09T18:29:26.587Z,100585.03
2022-09-09T18:31:56.312Z,100590.28
2022-09-09T18:34:26.022Z,100597.34
2022-09-09T18:36:56.109Z,100599.25
2022-09-09T18:39:29.705Z,100597.19
2022-09-09T18:42:01.444Z,100595.91
2022-09-09T18:44:35.738Z,100597.91
2022-09-09T18:47:03.844Z,100596.00
2022-09-09T18:49:31.015Z,100601.25
2022-09-09T18:51:58.051Z,100603.59
2022-09-09T18:54:30.235Z,100615.00
2022-09-09T18:57:00.599Z,100614.91
2022-09-09T18:59:29.773Z,100625.09
2022-09-09T19:01:57.108Z,100624.66
2022-09-09T19:04:27.369Z,100619.50
2022-09-09T19:06:58.170Z,100624.59
2022-09-09T19:09:31.693Z,100624.03
2022-09-09T19:12:01.466Z,100622.69
2022-09-09T19:14:30.090Z,100611.69
2022-09-09T19:16:57.462Z,100611.88
2022-09-09T19:19:32.204Z,100623.75
2022-09-09T19:22:01.814Z,100622.78
2022-09-09T19:24:33.157Z,100625.81
2022-09-09T19:27:06.960Z,100632.50
2022-09-09T19:29:39.579Z,100630.06
2022-09-09T19:34:53.805Z,100646.69
2022-09-09T19:37:22.543Z,100643.78
2022-09-09T19:39:50.737Z,100642.53
2022-09-09T19:42:18.533Z,100643.22
2022-09-09T19:44:46.463Z,100639.06
2022-09-09T19:47:15.081Z,100637.00
2022-09-09T19:49:46.715Z,100638.25
2022-09-09T19:52:15.106Z,100649.44
2022-09-09T19:54:43.334Z,100642.31
2022-09-09T19:57:10.502Z,100642.94
2022-09-09T19:59:37.617Z,100654.75
2022-09-09T20:02:04.730Z,100646.16
2022-09-09T20:04:31.864Z,100639.19
2022-09-09T20:06:58.788Z,100639.06
2022-09-09T20:09:27.048Z,100648.25
2022-09-09T20:11:54.097Z,100652.94
2022-09-09T20:14:21.062Z,100642.50
2022-09-09T20:16:48.020Z,100649.94
2022-09-09T20:19:16.678Z,100651.47
2022-09-09T20:21:50.096Z,100648.13
2022-09-09T20:24:23.217Z,100653.59
2022-09-09T20:26:50.759Z,100652.66
2022-09-09T20:29:20.567Z,100653.13
2022-09-09T20:31:48.707Z,100651.88
2022-09-09T20:34:22.262Z,100652.94
2022-09-09T20:36:50.977Z,100646.44
2022-09-09T20:39:22.190Z,100636.66
2022-09-09T20:41:50.316Z,100632.97
2022-09-09T20:44:24.345Z,100633.69
2022-09-09T20:47:02.855Z,100627.28
2022-09-09T20:49:30.372Z,100627.28
2022-09-09T20:51:57.353Z,100614.13
2022-09-09T20:54:30.292Z,100613.56
2022-09-09T20:56:58.139Z,100617.06
2022-09-09T20:59:31.049Z,100610.91
2022-09-09T21:01:58.548Z,100616.16
2022-09-09T21:04:26.229Z,100610.19
2022-09-09T21:06:53.509Z,100610.56
2022-09-09T21:09:24.593Z,100608.00
2022-09-09T21:11:53.767Z,100606.63
2022-09-09T21:14:22.085Z,100605.69
2022-09-09T21:16:49.023Z,100603.28
2022-09-09T21:19:16.028Z,100608.88
2022-09-09T21:21:43.246Z,100602.25
2022-09-09T21:24:11.280Z,100604.22
2022-09-09T21:26:39.565Z,100605.75
2022-09-09T21:29:06.831Z,100604.81
2022-09-09T21:31:33.961Z,100607.81
2022-09-09T21:34:01.073Z,100609.34
2022-09-09T21:36:28.581Z,100608.06
2022-09-09T21:38:59.283Z,100614.13
2022-09-09T21:41:26.856Z,100614.13
2022-09-09T21:43:55.194Z,100611.34
2022-09-09T21:46:23.944Z,100613.66
2022-09-09T21:48:51.098Z,100609.34
2022-09-09T21:51:19.085Z,100610.41
2022-09-09T21:53:46.653Z,100619.13
2022-09-09T21:56:18.978Z,100621.56
2022-09-09T21:58:47.368Z,100621.56
2022-09-09T22:01:20.026Z,100617.97
2022-09-09T22:03:47.096Z,100618.31
2022-09-09T22:06:18.408Z,100617.03
2022-09-09T22:08:47.384Z,100621.09
2022-09-09T22:11:24.441Z,100618.31
2022-09-09T22:13:53.460Z,100616.66
2022-09-09T22:16:22.750Z,100616.56
2022-09-09T22:18:58.347Z,100623.28
2022-09-09T22:21:30.306Z,100620.97
2022-09-09T22:24:04.294Z,100626.69
2022-09-09T22:26:36.733Z,100625.88
2022-09-09T22:29:06.634Z,100619.81
2022-09-09T22:31:36.345Z,100614.09
2022-09-09T22:34:04.907Z,100619.06
2022-09-09T22:36:31.983Z,100616.66
2022-09-09T22:38:59.142Z,100613.50
2022-09-09T22:41:26.345Z,100621.41
2022-09-09T22:43:53.783Z,100627.22
2022-09-09T22:46:20.830Z,100624.69
2022-09-09T22:48:48.250Z,100621.41
2022-09-09T22:51:16.163Z,100620.94
2022-09-09T22:53:46.360Z,100618.50
2022-09-09T22:56:19.466Z,100617.69
2022-09-09T22:58:52.654Z,100627.22
2022-09-09T23:01:21.047Z,100625.13
2022-09-09T23:03:50.917Z,100621.28
2022-09-09T23:06:23.640Z,100625.25
2022-09-09T23:08:57.531Z,100618.25
2022-09-09T23:11:33.771Z,100617.53
2022-09-09T23:14:07.029Z,100615.28
2022-09-09T23:16:44.379Z,100619.34
2022-09-09T23:19:17.471Z,100614.78
2022-09-09T23:21:47.134Z,100618.63
2022-09-09T23:24:18.001Z,100619.00
2022-09-09T23:26:46.504Z,100619.00
2022-09-09T23:29:15.065Z,100620.66
2022-09-09T23:31:46.007Z,100625.03
2022-09-09T23:34:14.661Z,100620.84
2022-09-09T23:36:42.257Z,100614.81
2022-09-09T23:39:12.196Z,100609.25
2022-09-09T23:41:40.432Z,100615.97
2022-09-09T23:44:08.105Z,100622.22
2022-09-09T23:46:36.271Z,100617.81
2022-09-09T23:49:04.531Z,100615.84
2022-09-09T23:51:34.875Z,100610.97
2022-09-09T23:54:05.658Z,100614.44
2022-09-09T23:56:38.823Z,100607.59
2022-09-09T23:59:08.092Z,100602.72
